Time;durP1;ratioP1;P1;durP2;ratioP2;P2;SDS_P1;SDS_P2;PMS_P1;PMS_P2;Temp;Humidity;BMP_temperature;BMP_pressure;BME280_temperature;BME280_humidity;BME280_pressure;Samples;Min_cycle;Max_cycle;Signal;HPM_P1;HPM_P2
2022/03/06 00:00:29;;;;;;;37.15;21.58;;;-1.50;99.90;;;;;;5114861;27;20378;-57
2022/03/06 00:02:55;;;;;;;40.20;22.58;;;-1.50;99.90;;;;;;5133405;27;20031;-58
2022/03/06 00:05:21;;;;;;;42.90;22.50;;;-1.50;99.90;;;;;;5133104;27;20509;-56
2022/03/06 00:07:47;;;;;;;40.42;21.65;;;-1.50;99.90;;;;;;5143152;27;20114;-59
2022/03/06 00:10:12;;;;;;;45.92;23.30;;;-1.50;99.90;;;;;;5153934;27;20474;-57
2022/03/06 00:12:38;;;;;;;40.28;24.25;;;-1.50;99.90;;;;;;5153658;27;20791;-56
2022/03/06 00:15:04;;;;;;;38.78;21.63;;;-1.50;99.90;;;;;;5135129;27;20023;-52
2022/03/06 00:17:30;;;;;;;40.58;21.23;;;-1.50;99.90;;;;;;5153486;27;20392;-58
2022/03/06 00:19:56;;;;;;;37.00;21.92;;;-1.50;99.90;;;;;;5153624;27;20023;-58
2022/03/06 00:22:21;;;;;;;42.25;21.42;;;-1.60;99.90;;;;;;5153142;27;20054;-55
2022/03/06 00:24:47;;;;;;;39.05;23.23;;;-1.60;99.90;;;;;;5150059;27;20056;-54
2022/03/06 00:27:12;;;;;;;36.85;22.05;;;-1.60;99.90;;;;;;5153564;27;20139;-57
2022/03/06 00:29:38;;;;;;;40.30;22.50;;;-1.60;99.90;;;;;;5153451;27;20039;-53
2022/03/06 00:32:04;;;;;;;37.85;20.17;;;-1.60;99.90;;;;;;5153495;27;20026;-53
2022/03/06 00:34:30;;;;;;;38.20;21.20;;;-1.50;99.90;;;;;;5153206;27;20046;-56
2022/03/06 00:36:56;;;;;;;42.97;20.40;;;-1.60;99.90;;;;;;5145213;27;20023;-55
2022/03/06 00:39:21;;;;;;;35.83;21.10;;;-1.60;99.90;;;;;;5132567;27;20027;-55
2022/03/06 00:41:47;;;;;;;42.63;21.08;;;-1.60;99.90;;;;;;5132510;27;20019;-55
2022/03/06 00:44:13;;;;;;;39.83;21.90;;;-1.60;99.90;;;;;;5132564;27;20114;-50
2022/03/06 00:46:38;;;;;;;43.60;20.50;;;-1.50;99.90;;;;;;5132433;27;20023;-53
2022/03/06 00:49:04;;;;;;;41.45;21.98;;;-1.50;99.90;;;;;;5132540;27;20102;-55
2022/03/06 00:51:30;;;;;;;42.30;21.20;;;-1.50;99.90;;;;;;5132354;27;20019;-54
2022/03/06 00:53:55;;;;;;;40.83;19.90;;;-1.50;99.90;;;;;;5132538;28;20431;-54
2022/03/06 00:56:21;;;;;;;37.35;20.65;;;-1.50;99.90;;;;;;5131893;27;20028;-57
2022/03/06 00:58:47;;;;;;;45.42;21.45;;;-1.50;99.90;;;;;;5131883;28;20024;-55
2022/03/06 01:01:12;;;;;;;41.15;20.90;;;-1.50;99.90;;;;;;5150248;27;20127;-58
2022/03/06 01:03:40;;;;;;;44.28;21.67;;;-1.50;99.90;;;;;;5134348;27;20042;-55
2022/03/06 01:06:05;;;;;;;52.65;22.08;;;-1.60;99.90;;;;;;5153081;27;20360;-52
2022/03/06 01:08:31;;;;;;;40.45;20.25;;;-1.60;99.90;;;;;;5152953;27;20101;-55
2022/03/06 01:10:57;;;;;;;40.78;21.67;;;-1.60;99.90;;;;;;5152618;27;20030;-57
2022/03/06 01:13:23;;;;;;;42.25;19.67;;;-1.60;99.90;;;;;;5152621;27;20023;-55
2022/03/06 01:15:48;;;;;;;44.65;20.70;;;-1.60;99.90;;;;;;5135791;27;20142;-53
2022/03/06 01:18:14;;;;;;;31.45;18.63;;;-1.60;99.90;;;;;;5131856;28;20043;-54
2022/03/06 01:20:41;;;;;;;29.42;16.60;;;-1.60;99.90;;;;;;5131971;28;20381;-53
2022/03/06 01:23:08;;;;;;;31.05;18.08;;;-1.70;99.90;;;;;;5132203;28;20026;-58
2022/03/06 01:25:34;;;;;;;29.20;16.63;;;-1.60;99.90;;;;;;5132079;28;20030;-59
2022/03/06 01:28:01;;;;;;;32.60;17.75;;;-1.60;99.90;;;;;;5132088;28;20019;-58
2022/03/06 01:30:27;;;;;;;33.53;18.20;;;-1.70;99.90;;;;;;5132065;27;20031;-55
2022/03/06 01:32:53;;;;;;;33.75;18.33;;;-1.70;99.90;;;;;;5131775;28;20031;-57
2022/03/06 01:35:20;;;;;;;26.90;16.27;;;-1.70;99.90;;;;;;5132027;28;20137;-55
2022/03/06 01:37:46;;;;;;;26.20;15.55;;;-1.70;99.90;;;;;;5132135;28;20027;-57
2022/03/06 01:40:14;;;;;;;31.20;18.02;;;-1.70;99.90;;;;;;5132111;28;20038;-58
2022/03/06 01:42:44;;;;;;;31.48;16.15;;;-1.70;99.90;;;;;;5132030;28;20039;-55
2022/03/06 01:45:12;;;;;;;29.08;16.85;;;-1.60;99.90;;;;;;5147405;27;20023;-56
2022/03/06 01:47:45;;;;;;;29.23;17.23;;;-1.60;99.90;;;;;;5152138;27;20355;-57
2022/03/06 01:50:15;;;;;;;30.05;17.40;;;-1.70;99.90;;;;;;5133983;27;20438;-53
2022/03/06 01:52:42;;;;;;;27.80;17.55;;;-1.60;99.90;;;;;;5152558;27;20029;-57
2022/03/06 01:55:08;;;;;;;33.33;18.33;;;-1.70;99.90;;;;;;5152601;27;20030;-57
2022/03/06 01:57:34;;;;;;;32.03;18.00;;;-1.70;99.90;;;;;;5151996;27;20038;-55
2022/03/06 02:00:04;;;;;;;32.30;18.02;;;-1.70;99.90;;;;;;5151642;27;20034;-55
2022/03/06 02:02:29;;;;;;;27.63;17.75;;;-1.80;99.90;;;;;;5139965;27;20031;-54
2022/03/06 02:04:55;;;;;;;29.63;16.75;;;-1.70;99.90;;;;;;5131590;28;20068;-54
2022/03/06 02:07:21;;;;;;;24.90;16.00;;;-1.70;99.90;;;;;;5129757;28;20064;-57
2022/03/06 02:09:46;;;;;;;27.23;16.08;;;-1.70;99.90;;;;;;5133889;27;20544;-57
2022/03/06 02:12:24;;;;;;;26.90;16.83;;;-1.70;99.90;;;;;;5135827;27;20031;-54
2022/03/06 02:14:53;;;;;;;31.85;17.00;;;-1.70;99.90;;;;;;5134619;27;20012;-56
2022/03/06 02:17:19;;;;;;;30.27;17.88;;;-1.70;99.90;;;;;;5115587;27;20530;-59
2022/03/06 02:19:51;;;;;;;27.15;15.65;;;-1.70;99.90;;;;;;5133669;27;20023;-54
2022/03/06 02:22:16;;;;;;;28.90;16.35;;;-1.70;99.90;;;;;;5133872;27;20045;-55
2022/03/06 02:24:42;;;;;;;29.65;16.10;;;-1.70;99.90;;;;;;5132825;27;20030;-57
2022/03/06 02:27:08;;;;;;;31.05;16.70;;;-1.70;99.90;;;;;;5146083;27;20031;-54
2022/03/06 02:29:33;;;;;;;33.15;17.35;;;-1.70;99.90;;;;;;5154053;27;20041;-54
2022/03/06 02:32:02;;;;;;;30.33;16.77;;;-1.70;99.90;;;;;;5154688;27;20030;-55
2022/03/06 02:34:28;;;;;;;27.17;16.98;;;-1.70;99.90;;;;;;5154940;27;20536;-58
2022/03/06 02:36:54;;;;;;;29.65;16.90;;;-1.70;99.90;;;;;;5155453;27;20117;-58
2022/03/06 02:39:24;;;;;;;33.05;15.50;;;-1.70;99.90;;;;;;5154839;27;20023;-58
2022/03/06 02:41:50;;;;;;;28.67;16.50;;;-1.70;99.90;;;;;;5155209;27;20023;-57
2022/03/06 02:44:16;;;;;;;29.48;17.60;;;-1.70;99.90;;;;;;5136760;27;20359;-56
2022/03/06 02:46:45;;;;;;;25.55;15.10;;;-1.70;99.90;;;;;;5155167;27;20025;-59
2022/03/06 02:49:13;;;;;;;29.58;16.73;;;-1.70;99.90;;;;;;5154795;27;20027;-55
2022/03/06 02:51:41;;;;;;;26.15;15.70;;;-1.70;99.90;;;;;;5155111;27;20011;-58
2022/03/06 02:54:07;;;;;;;23.02;14.93;;;-1.70;99.90;;;;;;5155327;27;20397;-59
2022/03/06 02:56:33;;;;;;;27.27;15.75;;;-1.60;99.90;;;;;;5142064;27;20029;-57
2022/03/06 02:58:59;;;;;;;29.70;15.68;;;-1.60;99.90;;;;;;5115880;27;20034;-58
2022/03/06 03:01:25;;;;;;;26.15;16.10;;;-1.70;99.90;;;;;;5134281;27;20008;-57
2022/03/06 03:03:51;;;;;;;25.80;16.48;;;-1.60;99.90;;;;;;5134518;27;20059;-57
2022/03/06 03:06:17;;;;;;;26.33;16.73;;;-1.60;99.90;;;;;;5134552;27;20023;-58
2022/03/06 03:08:46;;;;;;;26.35;15.95;;;-1.60;99.90;;;;;;5134197;27;20023;-58
2022/03/06 03:11:12;;;;;;;29.08;16.55;;;-1.60;99.90;;;;;;5126087;27;20127;-56
2022/03/06 03:13:38;;;;;;;30.23;16.20;;;-1.60;99.90;;;;;;5154665;27;20106;-59
2022/03/06 03:16:05;;;;;;;26.27;16.10;;;-1.60;99.90;;;;;;5154996;27;20113;-57
2022/03/06 03:18:31;;;;;;;28.10;15.98;;;-1.60;99.90;;;;;;5154334;27;20042;-58
2022/03/06 03:20:56;;;;;;;25.27;16.55;;;-1.60;99.90;;;;;;5153469;27;20370;-58
2022/03/06 03:23:22;;;;;;;23.00;14.40;;;-1.70;99.90;;;;;;5154167;27;20022;-58
2022/03/06 03:25:48;;;;;;;26.38;15.60;;;-1.70;99.90;;;;;;5143556;27;20027;-57
2022/03/06 03:28:13;;;;;;;24.73;14.95;;;-1.70;99.90;;;;;;5100210;28;20027;-57
2022/03/06 03:30:39;;;;;;;26.35;16.10;;;-1.70;99.90;;;;;;5113234;28;20055;-56
2022/03/06 03:33:05;;;;;;;25.95;16.45;;;-1.70;99.90;;;;;;5113367;28;20031;-57
2022/03/06 03:35:30;;;;;;;25.15;16.55;;;-1.70;99.90;;;;;;5113111;28;20023;-58
2022/03/06 03:37:56;;;;;;;25.98;15.98;;;-1.70;99.90;;;;;;5113277;28;20023;-59
2022/03/06 03:40:22;;;;;;;27.00;17.05;;;-1.80;99.90;;;;;;5112945;28;20119;-56
2022/03/06 03:42:47;;;;;;;30.50;18.13;;;-1.80;99.90;;;;;;5127369;27;20030;-57
2022/03/06 03:45:13;;;;;;;30.08;16.95;;;-1.80;99.90;;;;;;5133489;27;20015;-59
2022/03/06 03:47:39;;;;;;;23.88;16.20;;;-1.80;99.90;;;;;;5133297;27;20033;-58
2022/03/06 03:50:05;;;;;;;27.75;17.05;;;-1.80;99.90;;;;;;5133691;27;20080;-56
2022/03/06 03:52:31;;;;;;;32.65;15.50;;;-1.80;99.90;;;;;;5133490;27;20423;-58
2022/03/06 03:54:57;;;;;;;26.73;15.82;;;-1.90;99.90;;;;;;5133429;27;20058;-57
2022/03/06 03:57:25;;;;;;;27.27;16.30;;;-1.90;99.90;;;;;;5127067;27;20404;-56
2022/03/06 03:59:52;;;;;;;28.00;16.67;;;-1.90;99.90;;;;;;5154060;27;20025;-57
2022/03/06 04:02:17;;;;;;;34.15;16.98;;;-1.90;99.90;;;;;;5153743;27;20018;-57
2022/03/06 04:04:43;;;;;;;28.60;17.77;;;-1.90;99.90;;;;;;5153837;27;20034;-59
2022/03/06 04:07:09;;;;;;;26.92;15.98;;;-1.90;99.90;;;;;;5153582;27;20090;-58
2022/03/06 04:09:35;;;;;;;31.80;17.13;;;-1.90;99.90;;;;;;5153717;27;20027;-56
2022/03/06 04:12:01;;;;;;;29.65;17.20;;;-1.80;99.90;;;;;;5123389;27;20044;-58
2022/03/06 04:14:26;;;;;;;29.25;16.60;;;-1.80;99.90;;;;;;5132918;27;20118;-58
2022/03/06 04:16:52;;;;;;;31.05;16.13;;;-1.80;99.90;;;;;;5133118;27;20106;-57
2022/03/06 04:19:18;;;;;;;25.42;16.75;;;-1.90;99.90;;;;;;5114327;27;20039;-58
2022/03/06 04:21:43;;;;;;;29.85;16.38;;;-1.90;99.90;;;;;;5132564;27;20606;-58
2022/03/06 04:24:10;;;;;;;28.58;18.15;;;-1.90;99.90;;;;;;5132822;27;20047;-59
2022/03/06 04:26:36;;;;;;;30.05;17.83;;;-1.90;99.90;;;;;;5147686;27;20027;-58
2022/03/06 04:29:03;;;;;;;27.65;18.13;;;-2.00;99.90;;;;;;5153292;27;20060;-55
2022/03/06 04:31:28;;;;;;;28.73;17.63;;;-2.00;99.90;;;;;;5152659;27;20141;-57
2022/03/06 04:33:54;;;;;;;30.77;18.08;;;-2.10;99.90;;;;;;5152914;27;20020;-57
2022/03/06 04:36:20;;;;;;;32.50;17.58;;;-2.10;99.90;;;;;;5153528;27;20431;-55
2022/03/06 04:38:46;;;;;;;29.35;17.70;;;-2.10;99.90;;;;;;5152576;27;20057;-58
2022/03/06 04:41:12;;;;;;;30.70;17.13;;;-2.10;99.90;;;;;;5153094;27;20452;-58
2022/03/06 04:43:38;;;;;;;27.10;17.23;;;-2.10;99.90;;;;;;5153032;27;20067;-58
2022/03/06 04:46:04;;;;;;;30.65;17.75;;;-2.10;99.90;;;;;;5153407;27;20023;-59
2022/03/06 04:48:30;;;;;;;38.83;18.75;;;-2.10;99.90;;;;;;5153223;27;20054;-57
2022/03/06 04:50:55;;;;;;;29.33;18.00;;;-2.10;99.90;;;;;;5153401;27;20421;-58
2022/03/06 04:53:21;;;;;;;28.20;17.73;;;-2.10;99.90;;;;;;5153193;27;20090;-54
2022/03/06 04:55:47;;;;;;;32.50;17.63;;;-2.20;99.90;;;;;;5140173;27;20027;-56
2022/03/06 04:58:12;;;;;;;31.83;17.50;;;-2.10;99.90;;;;;;5132397;28;20357;-58
2022/03/06 05:00:38;;;;;;;32.22;18.80;;;-2.20;99.90;;;;;;5132398;28;20043;-58
2022/03/06 05:03:04;;;;;;;30.27;18.15;;;-2.20;99.90;;;;;;5132497;28;20084;-58
2022/03/06 05:05:30;;;;;;;32.67;18.55;;;-2.10;99.90;;;;;;5132382;28;20030;-56
2022/03/06 05:07:55;;;;;;;29.83;17.35;;;-2.20;99.90;;;;;;5137027;27;20035;-56
2022/03/06 05:10:21;;;;;;;29.92;17.77;;;-2.10;99.90;;;;;;5153109;27;20511;-58
2022/03/06 05:12:46;;;;;;;36.35;19.40;;;-2.10;99.90;;;;;;5152951;27;20078;-58
2022/03/06 05:15:13;;;;;;;30.58;19.02;;;-2.20;99.90;;;;;;5153189;27;20027;-57
2022/03/06 05:17:40;;;;;;;30.52;17.95;;;-2.10;99.90;;;;;;5152640;27;20042;-56
2022/03/06 05:20:08;;;;;;;36.28;18.90;;;-2.20;99.90;;;;;;5153169;27;20050;-59
2022/03/06 05:22:34;;;;;;;31.70;18.50;;;-2.20;99.90;;;;;;5148693;27;20096;-54
2022/03/06 05:25:00;;;;;;;35.20;20.17;;;-2.20;99.90;;;;;;5113794;28;20027;-57
2022/03/06 05:27:26;;;;;;;34.28;19.25;;;-2.20;99.90;;;;;;5132123;28;20019;-58
2022/03/06 05:29:51;;;;;;;28.90;18.73;;;-2.30;99.90;;;;;;5113675;28;20462;-57
2022/03/06 05:32:17;;;;;;;34.95;19.70;;;-2.30;99.90;;;;;;5132307;28;20024;-56
2022/03/06 05:34:43;;;;;;;35.30;19.63;;;-2.30;99.90;;;;;;5132040;28;20023;-56
2022/03/06 05:37:08;;;;;;;45.50;26.50;;;-2.30;99.90;;;;;;5134509;27;20022;-58
2022/03/06 05:39:34;;;;;;;42.20;23.67;;;-2.20;99.90;;;;;;5152732;27;20051;-56
2022/03/06 05:42:00;;;;;;;39.20;23.55;;;-2.20;99.90;;;;;;5152773;27;20537;-56
2022/03/06 05:44:26;;;;;;;64.88;30.63;;;-2.20;99.90;;;;;;5155431;27;20076;-57
2022/03/06 05:46:51;;;;;;;41.85;25.05;;;-2.20;99.90;;;;;;5142339;27;20011;-56
2022/03/06 05:49:17;;;;;;;43.70;25.58;;;-2.20;99.90;;;;;;5136003;27;20031;-57
2022/03/06 05:51:44;;;;;;;52.35;28.73;;;-2.20;99.90;;;;;;5135806;27;20027;-58
2022/03/06 05:54:11;;;;;;;42.88;25.48;;;-2.20;99.90;;;;;;5135825;27;20031;-59
2022/03/06 05:56:39;;;;;;;41.13;24.60;;;-2.20;99.90;;;;;;5135624;27;20101;-57
2022/03/06 05:59:05;;;;;;;46.72;29.05;;;-2.10;99.90;;;;;;5135543;27;20102;-56
2022/03/06 06:01:31;;;;;;;36.53;23.60;;;-2.10;99.90;;;;;;5148330;27;20015;-58
2022/03/06 06:03:58;;;;;;;40.47;22.75;;;-2.10;99.90;;;;;;5156337;27;20492;-58
2022/03/06 06:06:25;;;;;;;45.47;28.08;;;-2.00;99.90;;;;;;5156169;27;20036;-58
2022/03/06 06:08:51;;;;;;;39.60;22.38;;;-2.00;99.90;;;;;;5137861;27;20042;-59
2022/03/06 06:11:18;;;;;;;40.03;24.17;;;-2.00;99.90;;;;;;5155942;27;20023;-57
2022/03/06 06:13:44;;;;;;;38.03;23.67;;;-1.90;99.90;;;;;;5156062;27;20071;-58
2022/03/06 06:16:10;;;;;;;44.88;21.33;;;-1.80;99.90;;;;;;5143401;27;20030;-57
2022/03/06 06:18:35;;;;;;;36.85;20.38;;;-1.70;99.90;;;;;;5134942;27;20117;-57
2022/03/06 06:21:01;;;;;;;43.67;20.02;;;-1.70;99.90;;;;;;5135297;27;20470;-59
2022/03/06 06:23:27;;;;;;;38.85;21.70;;;-1.70;99.90;;;;;;5135078;27;20478;-58
2022/03/06 06:25:53;;;;;;;36.75;22.48;;;-1.60;99.90;;;;;;5135019;27;20069;-57
2022/03/06 06:28:19;;;;;;;38.78;21.10;;;-1.70;99.90;;;;;;5135002;27;20057;-59
2022/03/06 06:30:44;;;;;;;34.95;22.48;;;-1.60;99.90;;;;;;5116509;27;20039;-57
2022/03/06 06:33:10;;;;;;;39.15;21.20;;;-1.60;99.90;;;;;;5116581;27;20036;-58
2022/03/06 06:35:36;;;;;;;38.28;23.15;;;-1.50;99.90;;;;;;5134945;27;20030;-55
2022/03/06 06:38:03;;;;;;;37.00;21.15;;;-1.50;99.90;;;;;;5134980;27;20603;-55
2022/03/06 06:40:28;;;;;;;36.88;20.85;;;-1.40;99.90;;;;;;5134647;27;20023;-55
2022/03/06 06:42:54;;;;;;;44.42;24.30;;;-1.30;99.90;;;;;;5134807;27;20144;-58
2022/03/06 06:45:20;;;;;;;49.58;27.77;;;-1.30;99.90;;;;;;5124193;27;20031;-59
2022/03/06 06:47:46;;;;;;;32.78;20.63;;;-1.20;99.90;;;;;;5134704;27;20023;-56
2022/03/06 06:50:12;;;;;;;38.72;20.55;;;-1.10;99.90;;;;;;5134631;27;20541;-56
2022/03/06 06:52:37;;;;;;;45.85;24.13;;;-1.00;99.90;;;;;;5115929;27;20494;-59
2022/03/06 06:55:05;;;;;;;36.20;20.48;;;-1.00;99.90;;;;;;5131182;27;20431;-57
2022/03/06 06:57:30;;;;;;;35.55;20.95;;;-0.90;99.90;;;;;;5138973;27;20046;-56
2022/03/06 06:59:57;;;;;;;40.90;22.35;;;-0.90;99.90;;;;;;5141277;27;20039;-56
2022/03/06 07:02:23;;;;;;;38.13;22.33;;;-0.80;99.90;;;;;;5145843;27;20023;-55
2022/03/06 07:04:48;;;;;;;40.42;21.73;;;-0.70;99.90;;;;;;5154003;27;20037;-56
2022/03/06 07:07:14;;;;;;;41.03;23.40;;;-0.70;99.90;;;;;;5154409;27;20031;-54
2022/03/06 07:09:40;;;;;;;37.00;20.92;;;-0.60;99.90;;;;;;5153811;27;20027;-51
2022/03/06 07:12:06;;;;;;;39.25;24.45;;;-0.50;99.90;;;;;;5154108;27;20033;-59
2022/03/06 07:14:32;;;;;;;49.58;23.98;;;-0.50;99.90;;;;;;5153658;27;20496;-56
2022/03/06 07:16:59;;;;;;;35.20;22.10;;;-0.40;99.90;;;;;;5142389;27;20027;-57
2022/03/06 07:19:25;;;;;;;51.22;27.13;;;-0.40;99.90;;;;;;5132861;27;20125;-58
2022/03/06 07:21:50;;;;;;;46.10;24.40;;;-0.40;99.90;;;;;;5114911;27;20102;-55
2022/03/06 07:24:16;;;;;;;37.45;21.60;;;-0.40;99.90;;;;;;5133090;27;20072;-58
2022/03/06 07:26:42;;;;;;;38.88;24.10;;;-0.30;99.90;;;;;;5133139;27;20028;-56
2022/03/06 07:29:07;;;;;;;38.63;23.02;;;-0.30;99.90;;;;;;5133819;27;20045;-56
2022/03/06 07:31:33;;;;;;;52.67;27.85;;;-0.20;99.90;;;;;;5134872;27;20134;-56
2022/03/06 07:33:59;;;;;;;42.25;25.85;;;-0.10;99.90;;;;;;5133863;27;20079;-57
2022/03/06 07:36:25;;;;;;;44.38;25.95;;;0.00;99.90;;;;;;5133695;27;20110;-51
2022/03/06 07:38:51;;;;;;;42.70;24.08;;;0.10;99.90;;;;;;5133611;27;20027;-58
2022/03/06 07:41:17;;;;;;;46.03;23.17;;;0.10;99.90;;;;;;5133846;27;20020;-58
2022/03/06 07:43:43;;;;;;;36.13;22.10;;;0.00;99.90;;;;;;5133648;27;20027;-57
2022/03/06 07:46:09;;;;;;;34.63;22.73;;;0.10;99.90;;;;;;5149314;27;20106;-56
2022/03/06 07:48:35;;;;;;;32.65;21.13;;;0.20;99.90;;;;;;5133513;27;20466;-58
2022/03/06 07:51:01;;;;;;;37.40;23.33;;;0.30;99.90;;;;;;5133530;27;20068;-58
2022/03/06 07:53:27;;;;;;;39.30;24.65;;;0.30;99.90;;;;;;5133331;27;20431;-56
2022/03/06 07:55:53;;;;;;;36.42;22.58;;;0.30;99.90;;;;;;5131932;27;20027;-56
2022/03/06 07:58:19;;;;;;;36.90;23.35;;;0.40;99.90;;;;;;5132763;27;20034;-53
2022/03/06 08:00:45;;;;;;;40.08;24.52;;;0.60;99.90;;;;;;5132948;27;20027;-58
2022/03/06 08:03:11;;;;;;;36.95;23.85;;;0.60;99.90;;;;;;5134047;27;20029;-53
2022/03/06 08:05:36;;;;;;;40.88;24.52;;;0.60;99.90;;;;;;5134541;27;20041;-56
2022/03/06 08:08:03;;;;;;;37.78;24.90;;;0.70;99.90;;;;;;5142852;27;20087;-59
2022/03/06 08:10:29;;;;;;;39.58;22.58;;;0.70;99.90;;;;;;5132643;27;20027;-57
2022/03/06 08:12:54;;;;;;;39.58;23.50;;;0.80;99.90;;;;;;5132258;27;20435;-57
2022/03/06 08:15:20;;;;;;;36.17;21.52;;;0.80;99.90;;;;;;5152223;27;20355;-60
2022/03/06 08:17:46;;;;;;;39.45;22.38;;;0.80;99.90;;;;;;5124536;27;20079;-59
2022/03/06 08:20:12;;;;;;;43.35;24.67;;;0.90;99.90;;;;;;5098210;28;20038;-57
2022/03/06 08:22:38;;;;;;;36.67;21.70;;;1.10;99.90;;;;;;5102722;28;20048;-55
2022/03/06 08:25:04;;;;;;;38.72;21.35;;;1.20;99.90;;;;;;5091806;28;20059;-57
2022/03/06 08:27:32;;;;;;;36.33;22.17;;;1.20;99.90;;;;;;5091619;28;20424;-57
2022/03/06 08:29:58;;;;;;;33.95;22.38;;;1.30;99.90;;;;;;5091964;28;20111;-57
2022/03/06 08:32:24;;;;;;;38.53;22.67;;;1.40;99.90;;;;;;5091809;28;20024;-54
2022/03/06 08:34:51;;;;;;;36.80;22.38;;;1.40;99.90;;;;;;5092185;28;20024;-55
2022/03/06 08:37:18;;;;;;;35.67;22.40;;;1.30;99.90;;;;;;5091895;28;20053;-57
2022/03/06 08:39:47;;;;;;;33.75;20.10;;;1.30;99.90;;;;;;5090712;28;20024;-54
2022/03/06 08:42:14;;;;;;;39.25;23.27;;;1.50;99.90;;;;;;5091423;28;20069;-59
2022/03/06 08:44:39;;;;;;;36.40;21.95;;;1.60;99.90;;;;;;5089550;28;20582;-58
2022/03/06 08:47:05;;;;;;;41.60;24.52;;;1.80;99.90;;;;;;5090985;28;20099;-57
2022/03/06 08:49:31;;;;;;;34.40;21.58;;;2.00;99.90;;;;;;5091131;28;20020;-58
2022/03/06 08:51:57;;;;;;;37.72;23.08;;;2.10;99.90;;;;;;5091175;28;20036;-58
2022/03/06 08:54:24;;;;;;;50.88;24.38;;;2.10;99.90;;;;;;5091042;28;20026;-60
2022/03/06 08:56:49;;;;;;;39.38;20.90;;;2.10;99.50;;;;;;5091201;28;20071;-57
2022/03/06 08:59:15;;;;;;;51.22;32.85;;;2.20;98.60;;;;;;5090232;28;20414;-57
2022/03/06 09:01:41;;;;;;;52.10;34.33;;;2.20;98.30;;;;;;5090897;28;20020;-59
2022/03/06 09:04:07;;;;;;;72.40;37.20;;;2.30;98.60;;;;;;5091119;28;20039;-60
2022/03/06 09:06:33;;;;;;;75.07;43.92;;;2.40;98.50;;;;;;5090412;28;20016;-60
2022/03/06 09:08:58;;;;;;;58.63;36.90;;;2.40;97.20;;;;;;5090837;28;20035;-60
2022/03/06 09:11:24;;;;;;;66.72;34.80;;;2.30;97.70;;;;;;5089306;28;20020;-59
2022/03/06 09:13:50;;;;;;;212.80;107.03;;;2.50;96.30;;;;;;5090782;28;20020;-55
2022/03/06 09:16:16;;;;;;;275.92;137.32;;;2.50;96.30;;;;;;5094499;28;20027;-59
2022/03/06 09:18:43;;;;;;;367.23;171.23;;;2.60;95.60;;;;;;5118020;27;20048;-59
2022/03/06 09:21:09;;;;;;;104.20;54.28;;;2.80;94.70;;;;;;5119606;27;20350;-57
2022/03/06 09:23:35;;;;;;;66.80;38.88;;;2.70;94.50;;;;;;5135559;27;20019;-57
2022/03/06 09:26:01;;;;;;;35.33;22.15;;;2.80;94.30;;;;;;5134896;27;20285;-59
2022/03/06 09:28:26;;;;;;;52.78;29.42;;;3.00;93.80;;;;;;5134081;27;20023;-55
2022/03/06 09:30:52;;;;;;;37.25;23.48;;;3.20;93.60;;;;;;5134788;27;20481;-58
2022/03/06 09:33:18;;;;;;;34.45;22.10;;;3.10;92.20;;;;;;5138398;27;20027;-60
2022/03/06 09:35:43;;;;;;;41.42;22.52;;;3.20;92.10;;;;;;5134182;27;20525;-58
2022/03/06 09:38:09;;;;;;;34.42;20.45;;;3.00;92.40;;;;;;5134315;27;20011;-60
2022/03/06 09:40:35;;;;;;;31.63;20.10;;;3.00;91.40;;;;;;5135309;27;20065;-59
2022/03/06 09:43:01;;;;;;;33.75;20.05;;;3.10;91.00;;;;;;5138504;27;20080;-58
2022/03/06 09:45:30;;;;;;;29.48;19.67;;;3.30;90.50;;;;;;5139191;27;20019;-59
2022/03/06 09:47:58;;;;;;;31.27;20.05;;;3.20;88.60;;;;;;5135281;27;20011;-60
2022/03/06 09:50:24;;;;;;;33.65;20.45;;;3.50;87.60;;;;;;5136390;27;20503;-60
2022/03/06 09:52:49;;;;;;;39.08;23.08;;;3.50;85.60;;;;;;5135370;27;20023;-60
2022/03/06 09:55:15;;;;;;;34.20;20.17;;;3.60;85.20;;;;;;5134563;27;20024;-60
2022/03/06 09:57:41;;;;;;;32.22;21.08;;;3.70;83.30;;;;;;5139578;27;20397;-61
2022/03/06 10:00:09;;;;;;;34.90;20.95;;;3.70;82.10;;;;;;5125404;27;20033;-58
2022/03/06 10:02:57;;;;;;;32.17;18.92;;;3.90;82.50;;;;;;5135460;27;20023;-56
2022/03/06 10:05:34;;;;;;;27.23;17.27;;;4.00;81.50;;;;;;5114890;28;20024;-59
2022/03/06 10:08:17;;;;;;;31.05;19.38;;;4.10;78.30;;;;;;5125047;27;20033;-60
2022/03/06 10:10:45;;;;;;;27.80;18.40;;;4.00;79.40;;;;;;5135616;27;21285;-60
2022/03/06 10:13:30;;;;;;;29.35;17.42;;;4.20;78.20;;;;;;5135372;27;20023;-60
2022/03/06 10:16:12;;;;;;;29.50;18.00;;;4.40;77.20;;;;;;5135213;27;20709;-60
2022/03/06 10:18:40;;;;;;;29.23;18.02;;;4.20;74.50;;;;;;5134786;27;20566;-60
2022/03/06 10:21:09;;;;;;;29.52;17.42;;;4.30;75.20;;;;;;5135295;27;20039;-60
2022/03/06 10:23:35;;;;;;;29.17;17.13;;;4.70;75.20;;;;;;5135070;27;20022;-60
2022/03/06 10:26:07;;;;;;;31.08;18.08;;;4.50;73.80;;;;;;5135325;27;20102;-60
2022/03/06 10:28:50;;;;;;;27.15;17.30;;;4.50;72.50;;;;;;5134605;27;20126;-59
2022/03/06 10:31:18;;;;;;;30.85;16.52;;;4.80;74.70;;;;;;5133544;27;20022;-61
2022/03/06 10:34:12;;;;;;;24.88;14.80;;;5.00;72.70;;;;;;5134187;27;20102;-60
2022/03/06 10:36:41;;;;;;;25.48;15.40;;;5.40;68.50;;;;;;5133890;27;20020;-57
2022/03/06 10:39:19;;;;;;;24.75;16.20;;;5.40;70.10;;;;;;5114527;27;20030;-58
2022/03/06 10:41:54;;;;;;;28.08;15.80;;;5.40;69.50;;;;;;5114273;28;20374;-54
2022/03/06 10:44:22;;;;;;;24.40;15.93;;;6.00;65.40;;;;;;5113692;28;20372;-59
2022/03/06 10:46:57;;;;;;;24.23;15.57;;;6.90;64.70;;;;;;5113936;28;20016;-57
2022/03/06 10:49:23;;;;;;;23.60;15.68;;;7.60;58.80;;;;;;5112980;28;20035;-61
2022/03/06 10:51:51;;;;;;;21.52;14.80;;;8.00;56.10;;;;;;5105571;27;20040;-60
2022/03/06 10:54:18;;;;;;;24.83;13.77;;;8.50;53.90;;;;;;5104608;27;20027;-60
2022/03/06 10:56:50;;;;;;;28.30;16.73;;;9.00;52.80;;;;;;5102470;28;20024;-61
2022/03/06 10:59:26;;;;;;;19.23;13.57;;;9.20;49.60;;;;;;5087312;28;20036;-61
2022/03/06 11:01:52;;;;;;;20.73;14.57;;;9.20;47.00;;;;;;5103050;28;20059;-61
2022/03/06 11:04:19;;;;;;;19.10;14.05;;;9.20;46.80;;;;;;5103117;28;20771;-63
2022/03/06 11:06:46;;;;;;;21.90;13.60;;;9.70;47.00;;;;;;5104318;27;20498;-62
2022/03/06 11:09:14;;;;;;;18.88;12.45;;;9.40;44.40;;;;;;5103513;28;20027;-62
2022/03/06 11:11:45;;;;;;;18.48;13.25;;;9.90;47.20;;;;;;5102486;28;20030;-60
2022/03/06 11:14:12;;;;;;;21.35;13.27;;;9.40;44.90;;;;;;5120599;27;20046;-62
2022/03/06 11:16:39;;;;;;;32.90;14.00;;;9.50;45.70;;;;;;5102216;28;20039;-61
2022/03/06 11:19:07;;;;;;;25.75;15.80;;;9.80;43.30;;;;;;5107523;27;22518;-61
2022/03/06 11:21:38;;;;;;;23.45;14.43;;;10.10;44.10;;;;;;5104536;27;20024;-62
2022/03/06 11:24:37;;;;;;;21.85;12.43;;;10.90;42.50;;;;;;5102938;28;20474;-62
2022/03/06 11:27:27;;;;;;;19.65;12.70;;;12.30;41.90;;;;;;5050905;27;20085;-62
2022/03/06 11:30:01;;;;;;;17.05;12.43;;;12.60;40.60;;;;;;5102422;28;20028;-61
2022/03/06 11:32:31;;;;;;;20.00;12.60;;;11.40;39.10;;;;;;5103342;27;20039;-62
2022/03/06 11:35:07;;;;;;;20.52;12.05;;;11.70;39.10;;;;;;5119411;27;20434;-60
2022/03/06 11:38:06;;;;;;;14.55;11.00;;;12.40;39.20;;;;;;5101599;28;20047;-63
2022/03/06 11:40:48;;;;;;;19.77;12.63;;;12.50;36.30;;;;;;5046507;28;20363;-62
2022/03/06 11:43:31;;;;;;;18.55;12.52;;;12.30;37.20;;;;;;5099618;28;20043;-62
2022/03/06 11:46:06;;;;;;;;;;;12.50;37.00;;;;;;5103798;27;20024;-62
2022/03/06 11:48:34;;;;;;;16.02;11.60;;;13.20;37.20;;;;;;5112309;27;19912;-62
2022/03/06 11:51:15;;;;;;;13.82;10.60;;;13.30;35.00;;;;;;5104890;27;20671;-61
2022/03/06 11:54:02;;;;;;;16.23;11.50;;;12.90;34.90;;;;;;5101533;28;20535;-62
2022/03/06 11:56:46;;;;;;;17.27;12.82;;;12.80;33.90;;;;;;5102101;28;20027;-63
2022/03/06 11:59:23;;;;;;;14.65;11.32;;;12.60;34.40;;;;;;5101798;28;20034;-62
2022/03/06 12:01:56;;;;;;;16.83;11.52;;;12.60;35.00;;;;;;5102384;27;20390;-61
2022/03/06 12:04:29;;;;;;;16.35;11.10;;;13.20;33.40;;;;;;5101411;28;20474;-61
2022/03/06 12:07:09;;;;;;;16.08;12.13;;;11.70;34.30;;;;;;5105406;27;20036;-62
2022/03/06 12:09:39;;;;;;;17.08;11.85;;;11.00;35.90;;;;;;5111619;28;20051;-62
2022/03/06 12:12:10;;;;;;;16.35;12.23;;;10.20;37.90;;;;;;5111976;28;20482;-62
2022/03/06 12:14:56;;;;;;;16.40;11.10;;;10.40;38.70;;;;;;5110524;28;20089;-60
2022/03/06 12:17:28;;;;;;;22.08;16.27;;;11.30;37.10;;;;;;5111719;28;20090;-62
2022/03/06 12:19:54;;;;;;;16.13;10.77;;;11.00;37.20;;;;;;5126784;27;20027;-62
2022/03/06 12:22:29;;;;;;;16.02;11.35;;;11.00;35.50;;;;;;5151018;27;20030;-62
2022/03/06 12:25:04;;;;;;;20.65;12.75;;;11.40;34.60;;;;;;5152822;27;20026;-62
2022/03/06 12:27:30;;;;;;;21.95;11.73;;;11.90;35.40;;;;;;5151199;27;20526;-62
2022/03/06 12:30:02;;;;;;;14.65;10.45;;;12.20;34.50;;;;;;5153268;27;20373;-63
2022/03/06 12:32:32;;;;;;;16.92;11.57;;;13.30;34.30;;;;;;5153259;27;20022;-60